Time;durP1;ratioP1;P1;durP2;ratioP2;P2;SDS_P1;SDS_P2;PMS_P1;PMS_P2;Temp;Humidity;BMP_temperature;BMP_pressure;BME280_temperature;BME280_humidity;BME280_pressure;Samples;Min_cycle;Max_cycle;Signal;HPM_P1;HPM_P2
2022/02/10 00:05:30;;;;;;;37.78;23.55;;;;;;;;;;5023342;28;20045;-69
2022/02/10 00:18:22;;;;;;;36.88;23.67;;;;;;;;;;5015692;28;20060;-69
2022/02/10 00:20:54;;;;;;;;;;;;;;;;;;5002612;28;20058;-69
2022/02/10 00:34:29;;;;;;;36.97;22.30;;;;;;;;;;5030869;28;20505;-69
2022/02/10 00:37:10;;;;;;;40.78;22.75;;;;;;;;;;5013680;28;20259;-68
2022/02/10 00:42:13;;;;;;;35.42;20.33;;;;;;;;;;5017910;28;20049;-69
2022/02/10 00:44:39;;;;;;;30.65;18.95;;;;;;;;;;5024392;28;20054;-69
2022/02/10 00:47:06;;;;;;;32.63;19.35;;;;;;;;;;5017746;28;20056;-69
2022/02/10 00:49:34;;;;;;;34.10;19.20;;;;;;;;;;5024083;28;20053;-69
2022/02/10 00:52:03;;;;;;;28.05;17.17;;;;;;;;;;5011287;28;20045;-69
2022/02/10 00:54:30;;;;;;;30.42;18.25;;;;;;;;;;5022701;28;20056;-69
2022/02/10 00:56:57;;;;;;;28.23;17.08;;;;;;;;;;5023853;28;20065;-69
2022/02/10 00:59:39;;;;;;;28.08;16.70;;;;;;;;;;5016764;28;20053;-69
2022/02/10 01:31:44;;;;;;;20.45;13.13;;;;;;;;;;5019703;28;20060;-69
2022/02/10 01:34:11;;;;;;;22.88;14.15;;;;;;;;;;5012198;28;20089;-69
2022/02/10 01:36:37;;;;;;;21.58;13.15;;;;;;;;;;5023722;28;20057;-69
2022/02/10 01:39:05;;;;;;;21.90;12.95;;;;;;;;;;5014963;28;20064;-69
2022/02/10 01:58:25;;;;;;;18.80;11.00;;;;;;;;;;5003877;28;20057;-69
2022/02/10 02:03:37;;;;;;;19.08;11.48;;;;;;;;;;5028249;28;20130;-68
2022/02/10 02:06:14;;;;;;;16.13;11.48;;;;;;;;;;5026368;28;20064;-69
2022/02/10 02:08:41;;;;;;;15.50;10.75;;;;;;;;;;5031669;28;20060;-69
2022/02/10 02:11:08;;;;;;;17.33;11.50;;;;;;;;;;5040158;28;20053;-69
2022/02/10 02:13:34;;;;;;;21.25;12.18;;;;;;;;;;5022607;28;20525;-69
2022/02/10 02:16:01;;;;;;;19.92;11.27;;;;;;;;;;5023903;28;20514;-69
2022/02/10 02:18:28;;;;;;;17.48;11.57;;;;;;;;;;5025477;28;20052;-68
2022/02/10 02:20:55;;;;;;;26.85;12.65;;;;;;;;;;5027286;28;20486;-69
2022/02/10 02:23:22;;;;;;;16.13;11.18;;;;;;;;;;5028771;28;20068;-69
2022/02/10 02:25:53;;;;;;;17.05;11.07;;;;;;;;;;5025864;28;20422;-69
2022/02/10 02:28:20;;;;;;;16.20;10.85;;;;;;;;;;5020307;28;20267;-69
2022/02/10 02:30:55;;;;;;;15.13;10.20;;;;;;;;;;5019862;28;20054;-69
2022/02/10 03:06:30;;;;;;;17.45;11.00;;;;;;;;;;5021957;28;20410;-69
2022/02/10 03:09:01;;;;;;;17.95;11.70;;;;;;;;;;5015377;28;20058;-69
2022/02/10 03:11:29;;;;;;;16.15;10.70;;;;;;;;;;5026381;28;20516;-69
2022/02/10 03:14:09;;;;;;;17.10;11.25;;;;;;;;;;5026295;28;20060;-69
2022/02/10 04:03:02;;;;;;;18.10;12.40;;;;;;;;;;5015144;28;20053;-70
2022/02/10 04:11:06;;;;;;;18.05;12.43;;;;;;;;;;5024841;28;20050;-69
2022/02/10 04:16:19;;;;;;;19.17;13.38;;;;;;;;;;5020031;28;20049;-69
2022/02/10 04:27:04;;;;;;;;;;;;;;;;;;5025445;28;20072;-70
2022/02/10 04:30:05;;;;;;;24.08;14.75;;;;;;;;;;5005039;28;19932;-69
2022/02/10 04:43:55;;;;;;;26.13;13.48;;;;;;;;;;5021934;28;20060;-69
2022/02/10 04:55:06;;;;;;;23.83;16.02;;;;;;;;;;5025005;28;20136;-69
2022/02/10 05:00:09;;;;;;;25.52;16.10;;;;;;;;;;5021392;28;20049;-69
2022/02/10 05:16:19;;;;;;;22.40;15.32;;;;;;;;;;5016817;28;20045;-70
2022/02/10 05:35:20;;;;;;;25.23;15.90;;;;;;;;;;5023427;28;20049;-69
2022/02/10 05:38:33;;;;;;;22.83;15.13;;;;;;;;;;5012500;28;20076;-70
2022/02/10 05:43:31;;;;;;;28.08;17.77;;;;;;;;;;5017260;28;20060;-70
2022/02/10 05:46:22;;;;;;;26.88;16.85;;;;;;;;;;5023918;28;20427;-70
2022/02/10 05:53:56;;;;;;;26.92;16.88;;;;;;;;;;4996959;28;20058;-70
2022/02/10 05:59:51;;;;;;;26.65;16.10;;;;;;;;;;4981343;28;20051;-69
2022/02/10 06:03:03;;;;;;;30.60;17.40;;;;;;;;;;4960321;28;20050;-70
2022/02/10 06:49:05;;;;;;;32.90;19.55;;;;;;;;;;5022484;28;20056;-70
2022/02/10 06:54:15;;;;;;;29.13;18.70;;;;;;;;;;5026064;28;20053;-70
2022/02/10 07:05:23;;;;;;;29.10;17.23;;;;;;;;;;5004827;28;20514;-69
2022/02/10 07:10:38;;;;;;;29.73;18.25;;;;;;;;;;5014104;28;20069;-70
2022/02/10 07:13:37;;;;;;;30.27;19.20;;;;;;;;;;5027116;28;20053;-70
2022/02/10 07:49:31;;;;;;;37.97;22.80;;;;;;;;;;5018386;28;20422;-69
2022/02/10 07:54:55;;;;;;;22.42;12.93;;;;;;;;;;5009178;28;20609;-70
2022/02/10 08:28:47;;;;;;;6.72;2.83;;;;;;;;;;5020398;28;20478;-70
2022/02/10 08:55:06;;;;;;;4.45;1.20;;;;;;;;;;5023900;28;20049;-70
2022/02/10 09:13:34;;;;;;;5.78;1.38;;;;;;;;;;5015195;28;20489;-70
2022/02/10 09:27:44;;;;;;;7.28;1.08;;;;;;;;;;5016252;28;20049;-71
2022/02/10 09:57:36;;;;;;;7.90;1.55;;;;;;;;;;5023910;28;20056;-71
2022/02/10 10:02:15;;;;;;;5.97;1.60;;;;;;;;;;5017875;28;20064;-70
2022/02/10 10:04:58;;;;;;;6.63;1.42;;;;;;;;;;5020811;28;20053;-70
2022/02/10 10:07:49;;;;;;;5.00;1.55;;;;;;;;;;5018498;28;20045;-70
2022/02/10 10:10:43;;;;;;;9.02;1.50;;;;;;;;;;5023926;28;20050;-70
2022/02/10 10:21:25;;;;;;;9.05;1.67;;;;;;;;;;5028646;28;20061;-70
2022/02/10 10:24:11;;;;;;;10.93;1.40;;;;;;;;;;5020316;28;20049;-70
2022/02/10 10:27:30;;;;;;;4.10;0.90;;;;;;;;;;5029013;28;20057;-70
2022/02/10 10:52:06;;;;;;;9.30;1.67;;;;;;;;;;5032490;28;20079;-70
2022/02/10 10:57:14;;;;;;;6.57;1.80;;;;;;;;;;5035451;28;20049;-70
2022/02/10 11:36:45;;;;;;;10.80;3.28;;;;;;;;;;5026889;28;20049;-70
2022/02/10 11:39:37;;;;;;;9.18;3.20;;;;;;;;;;4994997;28;20053;-70
2022/02/10 11:45:14;;;;;;;8.07;3.15;;;;;;;;;;5020287;28;20065;-70
2022/02/10 14:09:31;;;;;;;10.02;2.10;;;;;;;;;;5019478;28;20075;-68
2022/02/10 14:14:41;;;;;;;10.00;1.83;;;;;;;;;;5025224;28;20045;-69
2022/02/10 14:17:11;;;;;;;8.73;1.85;;;;;;;;;;5018817;28;20422;-68
2022/02/10 14:19:42;;;;;;;7.30;1.92;;;;;;;;;;5024573;28;20049;-69
2022/02/10 14:27:23;;;;;;;9.15;2.10;;;;;;;;;;5023862;28;20050;-69
2022/02/10 14:29:49;;;;;;;8.65;1.77;;;;;;;;;;5017628;28;20740;-69
2022/02/10 14:32:23;;;;;;;9.32;1.75;;;;;;;;;;5025106;28;20053;-69
2022/02/10 14:34:52;;;;;;;5.35;1.52;;;;;;;;;;5012967;28;20125;-69
2022/02/10 14:40:28;;;;;;;6.63;1.30;;;;;;;;;;5017175;28;20046;-69
2022/02/10 15:51:33;;;;;;;;;;;;;;;;;;5003036;28;20592;-69
2022/02/10 16:10:54;;;;;;;10.98;2.10;;;;;;;;;;5017677;28;20053;-69
2022/02/10 16:11:10;;;;;;;10.38;2.67;;;;;;;;;;5014344;28;20052;-69
2022/02/10 16:14:22;;;;;;;7.10;2.00;;;;;;;;;;5017260;28;20053;-69
2022/02/10 16:18:43;;;;;;;11.55;3.20;;;;;;;;;;5018866;28;20471;-68
2022/02/10 16:21:11;;;;;;;10.00;1.63;;;;;;;;;;5018166;28;20064;-68
2022/02/10 16:23:37;;;;;;;9.80;1.88;;;;;;;;;;5015619;28;20049;-68
2022/02/10 16:28:40;;;;;;;7.93;2.65;;;;;;;;;;5025531;28;20052;-68
2022/02/10 16:31:08;;;;;;;10.98;2.60;;;;;;;;;;5017669;28;20053;-69
2022/02/10 16:33:34;;;;;;;6.45;1.77;;;;;;;;;;5020865;28;20320;-68
2022/02/10 16:36:06;;;;;;;10.73;2.40;;;;;;;;;;5014935;28;20042;-68
2022/02/10 16:38:38;;;;;;;10.43;3.03;;;;;;;;;;5025534;28;20167;-68
2022/02/10 16:41:11;;;;;;;11.27;2.25;;;;;;;;;;5017877;28;20057;-68
2022/02/10 16:43:42;;;;;;;9.85;2.67;;;;;;;;;;5025641;28;20057;-68
2022/02/10 16:46:13;;;;;;;13.82;2.60;;;;;;;;;;5019430;28;20387;-68
2022/02/10 16:48:45;;;;;;;12.75;3.00;;;;;;;;;;5019259;28;20045;-69
2022/02/10 16:51:18;;;;;;;9.05;2.45;;;;;;;;;;5030453;28;20399;-69
2022/02/10 16:53:54;;;;;;;10.77;2.85;;;;;;;;;;5021956;28;20619;-69
2022/02/10 16:56:33;;;;;;;9.82;2.95;;;;;;;;;;5045249;28;20063;-69
2022/02/10 16:59:37;;;;;;;9.25;3.10;;;;;;;;;;5038876;28;20052;-68
2022/02/10 17:02:48;;;;;;;13.43;2.50;;;;;;;;;;5022010;28;20050;-68
2022/02/10 17:05:22;;;;;;;9.93;3.42;;;;;;;;;;5013468;28;20057;-69
2022/02/10 17:19:30;;;;;;;9.45;2.90;;;;;;;;;;5019992;28;20822;-69
2022/02/10 17:27:23;;;;;;;11.30;2.75;;;;;;;;;;5016586;28;20140;-69
2022/02/10 17:54:23;;;;;;;9.68;1.60;;;;;;;;;;5021630;28;20053;-68
2022/02/10 17:56:49;;;;;;;10.85;1.77;;;;;;;;;;5021472;28;20084;-68
2022/02/10 17:59:17;;;;;;;9.80;2.38;;;;;;;;;;5019005;28;20049;-69
2022/02/10 18:01:44;;;;;;;8.73;1.63;;;;;;;;;;4999018;28;20822;-68
2022/02/10 18:04:11;;;;;;;7.53;1.93;;;;;;;;;;5025239;28;20057;-69
2022/02/10 18:06:44;;;;;;;8.07;1.58;;;;;;;;;;5018607;28;20046;-69
2022/02/10 18:09:29;;;;;;;5.97;1.50;;;;;;;;;;5024570;28;20063;-68
2022/02/10 18:12:50;;;;;;;8.15;1.80;;;;;;;;;;5012530;28;20064;-69
2022/02/10 18:15:02;;;;;;;13.73;2.38;;;;;;;;;;5022011;28;20061;-68
2022/02/10 18:17:43;;;;;;;6.55;2.25;;;;;;;;;;5016492;28;20138;-68
2022/02/10 18:20:15;;;;;;;15.77;2.40;;;;;;;;;;5024431;28;20056;-68
2022/02/10 18:33:20;;;;;;;5.75;1.73;;;;;;;;;;5018020;28;20057;-69
2022/02/10 18:37:50;;;;;;;9.50;2.50;;;;;;;;;;5017427;28;20076;-68
2022/02/10 19:06:34;;;;;;;7.93;2.40;;;;;;;;;;5027963;28;20049;-68
2022/02/10 19:11:24;;;;;;;15.73;2.92;;;;;;;;;;5027240;28;20057;-68
2022/02/10 19:13:53;;;;;;;11.32;2.53;;;;;;;;;;5027062;28;20056;-69
2022/02/10 19:16:20;;;;;;;5.63;1.90;;;;;;;;;;5018961;28;20266;-68
2022/02/10 19:18:50;;;;;;;7.05;2.20;;;;;;;;;;5025923;28;20041;-69
2022/02/10 19:21:16;;;;;;;13.02;2.22;;;;;;;;;;5020192;28;20057;-69
2022/02/10 19:23:43;;;;;;;11.00;2.58;;;;;;;;;;5026140;28;20768;-69
2022/02/10 19:26:09;;;;;;;13.93;3.20;;;;;;;;;;5020005;28;20053;-69
2022/02/10 19:28:35;;;;;;;11.05;3.30;;;;;;;;;;5019135;28;20053;-69
2022/02/10 19:31:04;;;;;;;13.20;2.90;;;;;;;;;;5026284;28;20403;-68
2022/02/10 19:33:31;;;;;;;14.25;3.20;;;;;;;;;;5020000;28;20412;-69
2022/02/10 19:35:57;;;;;;;12.40;3.00;;;;;;;;;;5026915;28;20105;-68
2022/02/10 19:38:26;;;;;;;12.20;2.95;;;;;;;;;;5019948;28;20490;-68
2022/02/10 19:40:54;;;;;;;;;;;;;;;;;;5022708;28;20517;-68
2022/02/10 19:43:22;;;;;;;11.70;2.78;;;;;;;;;;5014208;28;19921;-69
2022/02/10 19:45:49;;;;;;;12.60;3.50;;;;;;;;;;5024976;28;20049;-68
2022/02/10 19:48:15;;;;;;;11.15;3.95;;;;;;;;;;5025765;28;20053;-69
2022/02/10 19:50:42;;;;;;;12.15;3.35;;;;;;;;;;5020066;28;20049;-69
2022/02/10 19:53:15;;;;;;;16.08;2.67;;;;;;;;;;5031071;28;20058;-69
2022/02/10 19:55:45;;;;;;;14.80;2.80;;;;;;;;;;5012675;28;20470;-69
2022/02/10 19:58:14;;;;;;;24.80;3.15;;;;;;;;;;5021197;28;20073;-68
2022/02/10 20:00:44;;;;;;;12.05;3.25;;;;;;;;;;5017371;28;20456;-68
2022/02/10 20:03:19;;;;;;;12.70;2.97;;;;;;;;;;5025946;28;20501;-69
2022/02/10 20:05:48;;;;;;;8.90;2.90;;;;;;;;;;5025417;28;20089;-69
2022/02/10 20:08:15;;;;;;;13.60;3.33;;;;;;;;;;5017299;28;20057;-68
2022/02/10 20:10:42;;;;;;;9.48;3.35;;;;;;;;;;5026164;28;20045;-68
2022/02/10 20:13:13;;;;;;;12.50;3.70;;;;;;;;;;5024526;28;20053;-68
2022/02/10 20:15:39;;;;;;;13.05;3.33;;;;;;;;;;5024684;28;20055;-68
2022/02/10 20:18:05;;;;;;;9.38;2.92;;;;;;;;;;5017509;28;20501;-68
2022/02/10 20:20:32;;;;;;;17.63;3.20;;;;;;;;;;5025520;28;20133;-69
2022/02/10 20:22:58;;;;;;;14.73;4.30;;;;;;;;;;5028653;28;20041;-69
2022/02/10 20:25:34;;;;;;;12.85;3.08;;;;;;;;;;5016227;28;20050;-68
2022/02/10 20:28:00;;;;;;;15.25;3.80;;;;;;;;;;5025868;28;20053;-68
2022/02/10 20:30:26;;;;;;;9.70;3.08;;;;;;;;;;5019003;28;20060;-69
2022/02/10 20:32:53;;;;;;;12.88;3.40;;;;;;;;;;5025118;28;20045;-68
2022/02/10 20:35:20;;;;;;;9.68;3.22;;;;;;;;;;4998229;28;20147;-69
2022/02/10 20:37:46;;;;;;;10.68;3.05;;;;;;;;;;5018219;28;20056;-68
2022/02/10 20:40:13;;;;;;;13.27;3.28;;;;;;;;;;5024685;28;20052;-68
2022/02/10 20:42:40;;;;;;;12.35;2.63;;;;;;;;;;5012788;28;20072;-69
2022/02/10 20:45:07;;;;;;;7.97;2.33;;;;;;;;;;5020302;28;20054;-68
2022/02/10 20:47:34;;;;;;;11.48;2.58;;;;;;;;;;5014720;28;20049;-69
2022/02/10 20:50:03;;;;;;;9.68;2.17;;;;;;;;;;5018392;28;20053;-69
2022/02/10 20:52:31;;;;;;;9.75;2.80;;;;;;;;;;5009560;28;20529;-69
2022/02/10 20:54:59;;;;;;;13.27;2.88;;;;;;;;;;5020341;28;20065;-69
2022/02/10 20:57:26;;;;;;;8.98;2.55;;;;;;;;;;5020161;28;20049;-68
2022/02/10 20:59:53;;;;;;;14.45;3.22;;;;;;;;;;5013989;28;20502;-68
2022/02/10 21:02:29;;;;;;;9.10;2.35;;;;;;;;;;5021900;28;20060;-68
2022/02/10 21:05:00;;;;;;;8.20;2.63;;;;;;;;;;5006182;28;20518;-69
2022/02/10 21:07:39;;;;;;;12.18;2.55;;;;;;;;;;5017841;28;20049;-68
2022/02/10 21:10:11;;;;;;;8.60;2.38;;;;;;;;;;5011827;28;20049;-68
2022/02/10 21:12:40;;;;;;;13.48;3.05;;;;;;;;;;5023924;28;20077;-68
2022/02/10 21:15:11;;;;;;;7.55;2.55;;;;;;;;;;5018041;28;20056;-68
2022/02/10 21:17:37;;;;;;;9.13;2.33;;;;;;;;;;5019709;28;20049;-69
2022/02/10 21:20:06;;;;;;;8.18;2.60;;;;;;;;;;5013988;28;20158;-69
2022/02/10 21:22:37;;;;;;;;;;;;;;;;;;5026566;28;20044;-68
2022/02/10 21:25:14;;;;;;;14.55;3.20;;;;;;;;;;5025236;28;19932;-68
2022/02/10 21:27:45;;;;;;;13.15;2.90;;;;;;;;;;5015029;28;20519;-69
2022/02/10 21:30:13;;;;;;;9.95;2.78;;;;;;;;;;5024147;28;20053;-69
2022/02/10 21:32:47;;;;;;;13.00;3.23;;;;;;;;;;5011875;28;20536;-68
2022/02/10 21:37:49;;;;;;;12.98;2.95;;;;;;;;;;5017077;28;20053;-69
2022/02/10 21:40:44;;;;;;;13.00;2.97;;;;;;;;;;5024538;28;20057;-69
2022/02/10 22:18:59;;;;;;;12.55;3.28;;;;;;;;;;5020477;28;20057;-68
2022/02/10 22:21:28;;;;;;;9.18;2.45;;;;;;;;;;5027602;28;20053;-69
2022/02/10 22:23:54;;;;;;;6.80;2.70;;;;;;;;;;5020864;28;20049;-69
2022/02/10 22:26:25;;;;;;;13.13;3.17;;;;;;;;;;5027782;28;20053;-69
2022/02/10 22:31:31;;;;;;;6.10;2.30;;;;;;;;;;5025261;28;20057;-69
2022/02/10 22:36:30;;;;;;;5.97;2.13;;;;;;;;;;5020066;28;20060;-69
2022/02/10 22:39:01;;;;;;;7.38;2.10;;;;;;;;;;5027320;28;20053;-68
2022/02/10 22:41:28;;;;;;;6.28;2.15;;;;;;;;;;5015997;28;20057;-68
2022/02/10 22:43:55;;;;;;;5.70;2.10;;;;;;;;;;5024258;28;20435;-69
2022/02/10 22:46:21;;;;;;;12.30;2.53;;;;;;;;;;5020432;28;20115;-68
2022/02/10 22:48:49;;;;;;;5.38;2.40;;;;;;;;;;5040160;28;20119;-68
2022/02/10 22:51:19;;;;;;;9.75;2.30;;;;;;;;;;5047604;28;20059;-69
2022/02/10 22:53:45;;;;;;;9.67;2.97;;;;;;;;;;5036821;28;20159;-69
2022/02/10 22:56:13;;;;;;;7.45;2.38;;;;;;;;;;5032025;28;20446;-68
2022/02/10 22:58:39;;;;;;;8.40;2.17;;;;;;;;;;5019567;28;20049;-69
2022/02/10 23:01:07;;;;;;;8.15;2.47;;;;;;;;;;5027141;28;20052;-69
2022/02/10 23:03:36;;;;;;;11.52;2.17;;;;;;;;;;5020409;28;20060;-68
2022/02/10 23:06:03;;;;;;;8.27;2.22;;;;;;;;;;5026187;28;20053;-69
2022/02/10 23:08:30;;;;;;;10.43;2.42;;;;;;;;;;5023063;28;20049;-69
2022/02/10 23:10:56;;;;;;;7.47;2.00;;;;;;;;;;5012547;28;20057;-69
2022/02/10 23:13:27;;;;;;;8.00;2.22;;;;;;;;;;5024899;28;20053;-69
2022/02/10 23:16:00;;;;;;;6.65;2.28;;;;;;;;;;5017617;28;20395;-69
2022/02/10 23:18:28;;;;;;;7.80;2.45;;;;;;;;;;5019423;28;20055;-68
2022/02/10 23:20:56;;;;;;;10.48;2.65;;;;;;;;;;5004791;28;20057;-68
2022/02/10 23:23:23;;;;;;;8.43;2.00;;;;;;;;;;5016810;28;20060;-66
2022/02/10 23:25:50;;;;;;;10.05;3.22;;;;;;;;;;5019269;28;20513;-68
2022/02/10 23:28:17;;;;;;;12.07;2.75;;;;;;;;;;5015232;28;20068;-68
2022/02/10 23:30:46;;;;;;;10.10;3.30;;;;;;;;;;5016644;28;20077;-68
2022/02/10 23:33:19;;;;;;;5.97;2.42;;;;;;;;;;5015078;28;20065;-68
2022/02/10 23:38:15;;;;;;;10.48;3.20;;;;;;;;;;5008981;28;20045;-68
2022/02/10 23:43:22;;;;;;;11.32;3.00;;;;;;;;;;5017876;28;20080;-68
2022/02/10 23:45:49;;;;;;;9.07;2.75;;;;;;;;;;5022856;28;20081;-68
2022/02/10 23:48:16;;;;;;;10.73;3.45;;;;;;;;;;5031144;28;20056;-69
2022/02/10 23:50:42;;;;;;;13.57;3.03;;;;;;;;;;5010631;28;20586;-69
2022/02/10 23:53:13;;;;;;;12.07;2.65;;;;;;;;;;5016846;28;20487;-68
2022/02/10 23:55:41;;;;;;;10.68;3.00;;;;;;;;;;5013067;28;22863;-68
2022/02/10 23:58:36;;;;;;;10.75;2.63;;;;;;;;;;5023274;28;20073;-69
